createdAt,value
2022-10-26T00:02:00.423Z,21.28
2022-10-26T00:04:27.985Z,21.29
2022-10-26T00:06:55.379Z,21.28
2022-10-26T00:09:22.828Z,21.31
2022-10-26T00:11:50.238Z,21.29
2022-10-26T00:14:18.914Z,21.31
2022-10-26T00:16:46.316Z,21.33
2022-10-26T00:19:13.728Z,21.34
2022-10-26T00:21:41.129Z,21.31
2022-10-26T00:24:08.606Z,21.30
2022-10-26T00:26:36.052Z,21.30
2022-10-26T00:29:03.489Z,21.31
2022-10-26T00:31:32.183Z,21.34
2022-10-26T00:33:59.674Z,21.29
2022-10-26T00:36:27.176Z,21.31
2022-10-26T00:38:55.913Z,21.30
2022-10-26T00:41:24.612Z,21.30
2022-10-26T00:43:52.136Z,21.30
2022-10-26T00:46:20.722Z,21.32
2022-10-26T00:48:51.069Z,21.30
2022-10-26T00:51:22.116Z,21.30
2022-10-26T00:53:49.523Z,21.30
2022-10-26T00:56:16.916Z,21.29
2022-10-26T00:58:44.310Z,21.30
2022-10-26T01:01:12.312Z,21.30
2022-10-26T01:03:39.823Z,21.31
2022-10-26T01:06:09.489Z,21.30
2022-10-26T01:08:36.876Z,21.31
2022-10-26T01:11:04.705Z,21.30
2022-10-26T01:13:32.674Z,21.29
2022-10-26T01:16:05.997Z,21.30
2022-10-26T01:18:37.271Z,21.31
2022-10-26T01:21:22.278Z,21.29
2022-10-26T01:24:00.274Z,21.30
2022-10-26T01:26:46.774Z,21.32
2022-10-26T01:29:30.071Z,21.31
2022-10-26T01:31:59.682Z,21.30
2022-10-26T01:34:30.323Z,21.31
2022-10-26T01:36:58.690Z,21.28
2022-10-26T01:39:28.412Z,21.33
2022-10-26T01:41:57.244Z,21.31
2022-10-26T01:44:26.327Z,21.28
2022-10-26T01:46:54.427Z,21.29
2022-10-26T01:49:24.422Z,21.29
2022-10-26T01:51:51.841Z,21.31
2022-10-26T01:54:19.237Z,21.29
2022-10-26T01:56:47.808Z,21.28
2022-10-26T01:59:31.515Z,21.30
2022-10-26T02:02:18.426Z,21.29
2022-10-26T02:04:54.298Z,21.30
2022-10-26T02:07:24.668Z,21.31
2022-10-26T02:09:57.268Z,21.29
2022-10-26T02:12:31.157Z,21.29
2022-10-26T02:14:59.459Z,21.30
2022-10-26T02:17:28.849Z,21.30
2022-10-26T02:19:58.759Z,21.29
2022-10-26T02:22:27.796Z,21.29
2022-10-26T02:24:55.328Z,21.30
2022-10-26T02:27:24.820Z,21.29
2022-10-26T02:29:53.771Z,21.29
2022-10-26T02:32:21.169Z,21.29
2022-10-26T02:34:48.588Z,21.31
2022-10-26T02:37:17.276Z,21.30
2022-10-26T02:39:44.681Z,21.29
2022-10-26T02:42:12.078Z,21.29
2022-10-26T02:44:42.547Z,21.30
2022-10-26T02:47:09.980Z,21.28
2022-10-26T02:49:37.463Z,21.29
2022-10-26T02:52:07.200Z,21.29
2022-10-26T02:54:37.670Z,21.29
2022-10-26T02:57:08.440Z,21.28
2022-10-26T02:59:36.808Z,21.28
2022-10-26T03:02:04.230Z,21.30
2022-10-26T03:04:31.623Z,21.29
2022-10-26T03:06:59.069Z,21.31
2022-10-26T03:09:26.544Z,21.27
2022-10-26T03:11:55.227Z,21.30
2022-10-26T03:14:22.657Z,21.30
2022-10-26T03:19:22.512Z,21.31
2022-10-26T03:21:49.898Z,21.29
2022-10-26T03:24:17.301Z,21.27
2022-10-26T03:26:44.697Z,21.28
2022-10-26T03:29:13.389Z,21.28
2022-10-26T03:31:40.799Z,21.30
2022-10-26T03:34:08.243Z,21.30
2022-10-26T03:36:35.643Z,21.29
2022-10-26T03:39:03.045Z,21.30
2022-10-26T03:41:30.430Z,21.29
2022-10-26T03:43:57.829Z,21.31
2022-10-26T03:46:26.515Z,21.30
2022-10-26T03:48:54.064Z,21.28
2022-10-26T03:51:21.461Z,21.29
2022-10-26T03:53:48.863Z,21.28
2022-10-26T03:56:16.263Z,21.29
2022-10-26T03:58:43.657Z,21.27
2022-10-26T04:01:11.078Z,21.28
2022-10-26T04:03:39.824Z,21.28
2022-10-26T04:06:07.310Z,21.28
2022-10-26T04:08:34.704Z,21.28
2022-10-26T04:11:03.924Z,21.27
2022-10-26T04:13:32.277Z,21.25
2022-10-26T04:15:59.660Z,21.26
2022-10-26T04:18:27.059Z,21.25
2022-10-26T04:20:55.739Z,21.27
2022-10-26T04:23:23.152Z,21.28
2022-10-26T04:25:50.543Z,21.32
2022-10-26T04:28:17.943Z,21.27
2022-10-26T04:30:45.340Z,21.26
2022-10-26T04:33:12.784Z,21.24
2022-10-26T04:35:40.326Z,21.24
2022-10-26T04:38:09.007Z,21.26
2022-10-26T04:40:36.423Z,21.26
2022-10-26T04:43:03.824Z,21.25
2022-10-26T04:45:31.571Z,21.25
2022-10-26T04:48:02.963Z,21.27
2022-10-26T04:50:30.368Z,21.26
2022-10-26T04:52:57.942Z,21.32
2022-10-26T04:55:26.649Z,21.32
2022-10-26T04:57:56.083Z,21.33
2022-10-26T05:00:26.657Z,21.31
2022-10-26T05:02:54.049Z,21.29
2022-10-26T05:05:21.445Z,21.29
2022-10-26T05:07:54.686Z,21.29
2022-10-26T05:10:22.097Z,21.26
2022-10-26T05:12:52.842Z,21.27
2022-10-26T05:15:20.296Z,21.25
2022-10-26T05:17:48.069Z,21.26
2022-10-26T05:20:15.750Z,21.26
2022-10-26T05:22:43.142Z,21.26
2022-10-26T05:25:10.574Z,21.28
2022-10-26T05:27:37.976Z,21.26
2022-10-26T05:30:07.725Z,21.27
2022-10-26T05:32:35.128Z,21.28
2022-10-26T05:35:02.532Z,21.25
2022-10-26T05:37:30.011Z,21.23
2022-10-26T05:39:57.443Z,21.29
2022-10-26T05:42:25.386Z,21.24
2022-10-26T05:44:52.787Z,21.20
2022-10-26T05:47:21.474Z,21.24
2022-10-26T05:49:48.913Z,21.27
2022-10-26T05:52:16.394Z,21.25
2022-10-26T05:54:43.787Z,21.25
2022-10-26T05:57:12.725Z,21.23
2022-10-26T05:59:40.471Z,21.22
2022-10-26T06:02:11.942Z,21.19
2022-10-26T06:04:43.191Z,21.21
2022-10-26T06:07:12.680Z,21.19
2022-10-26T06:09:40.464Z,21.22
2022-10-26T06:12:08.769Z,21.18
2022-10-26T06:14:36.759Z,21.19
2022-10-26T06:17:11.299Z,21.20
2022-10-26T06:19:48.075Z,21.19
2022-10-26T06:22:22.819Z,21.21
2022-10-26T06:24:54.448Z,21.23
2022-10-26T06:27:27.117Z,21.25
2022-10-26T06:29:57.210Z,21.24
2022-10-26T06:32:24.880Z,21.23
2022-10-26T06:34:54.133Z,21.24
2022-10-26T06:37:21.550Z,21.25
2022-10-26T06:39:52.630Z,21.25
2022-10-26T06:42:22.645Z,21.29
2022-10-26T06:44:50.500Z,21.26
2022-10-26T06:47:22.712Z,21.29
2022-10-26T06:49:58.398Z,21.27
2022-10-26T06:52:30.364Z,21.28
2022-10-26T06:54:58.587Z,21.26
2022-10-26T06:57:28.526Z,21.28
2022-10-26T06:59:57.417Z,21.25
2022-10-26T07:02:24.991Z,21.29
2022-10-26T07:04:52.495Z,21.29
2022-10-26T07:07:22.746Z,21.28
2022-10-26T07:09:50.291Z,21.29
2022-10-26T07:12:17.713Z,21.31
2022-10-26T07:14:45.145Z,21.29
2022-10-26T07:17:12.701Z,21.29
2022-10-26T07:19:40.610Z,21.27
2022-10-26T07:22:08.017Z,21.25
2022-10-26T07:24:36.782Z,21.28
2022-10-26T07:27:04.179Z,21.29
2022-10-26T07:29:31.603Z,21.30
2022-10-26T07:31:59.971Z,21.30
2022-10-26T07:34:27.360Z,21.30
2022-10-26T07:36:54.762Z,21.31
2022-10-26T07:39:22.211Z,21.30
2022-10-26T07:41:50.896Z,21.31
2022-10-26T07:44:19.024Z,21.35
2022-10-26T07:46:46.413Z,21.36
2022-10-26T07:49:16.315Z,21.38
2022-10-26T07:51:46.669Z,21.36
2022-10-26T07:54:14.061Z,21.34
2022-10-26T07:56:41.466Z,21.36
2022-10-26T07:59:12.199Z,21.39
2022-10-26T08:01:39.639Z,21.41
2022-10-26T08:04:07.049Z,21.39
2022-10-26T08:06:34.624Z,21.43
2022-10-26T08:09:02.046Z,21.41
2022-10-26T08:11:29.446Z,21.43
2022-10-26T08:13:56.913Z,21.43
2022-10-26T08:16:25.729Z,21.43
2022-10-26T08:18:53.466Z,21.48
2022-10-26T08:21:35.752Z,21.48
2022-10-26T08:24:03.847Z,21.49
2022-10-26T08:26:31.259Z,21.47
2022-10-26T08:28:58.664Z,21.51
2022-10-26T08:31:27.345Z,21.51
2022-10-26T08:33:54.761Z,21.54
2022-10-26T08:36:24.486Z,21.58
2022-10-26T08:38:53.336Z,21.59
2022-10-26T08:41:25.173Z,21.62
2022-10-26T08:43:54.753Z,21.66
2022-10-26T08:46:23.171Z,21.67
2022-10-26T08:48:53.991Z,21.69
2022-10-26T08:51:24.429Z,21.70
2022-10-26T08:53:53.127Z,21.71
2022-10-26T08:56:21.860Z,21.75
2022-10-26T08:58:54.205Z,21.74
2022-10-26T09:01:21.656Z,21.79
2022-10-26T09:03:49.181Z,21.83
2022-10-26T09:06:25.168Z,21.84
2022-10-26T09:08:58.228Z,21.89
2022-10-26T09:11:33.429Z,21.90
2022-10-26T09:14:03.680Z,21.92
2022-10-26T09:16:33.253Z,21.92
2022-10-26T09:19:12.383Z,21.94
2022-10-26T09:21:44.735Z,21.94
2022-10-26T09:24:14.931Z,21.97
2022-10-26T09:26:50.337Z,21.97
2022-10-26T09:29:17.735Z,21.98
2022-10-26T09:31:47.327Z,22.00
2022-10-26T09:34:19.171Z,21.99
2022-10-26T09:36:47.877Z,21.97
2022-10-26T09:39:18.477Z,21.99
2022-10-26T09:41:48.611Z,22.05
2022-10-26T09:44:20.086Z,22.12
2022-10-26T09:46:49.258Z,22.16
2022-10-26T09:49:16.954Z,22.23
2022-10-26T09:51:44.976Z,22.25
2022-10-26T09:54:14.644Z,22.22
2022-10-26T09:56:42.043Z,22.29
2022-10-26T09:59:10.636Z,22.29
2022-10-26T10:01:41.406Z,22.25
2022-10-26T10:04:12.120Z,22.23
2022-10-26T10:06:39.855Z,22.28
2022-10-26T10:09:10.813Z,22.23
2022-10-26T10:11:41.489Z,22.23
2022-10-26T10:14:09.705Z,22.24
2022-10-26T10:16:37.134Z,22.24
2022-10-26T10:19:04.529Z,22.24
2022-10-26T10:21:38.330Z,22.26
2022-10-26T10:24:06.625Z,22.31
2022-10-26T10:26:34.206Z,22.31
2022-10-26T10:29:03.750Z,22.34
2022-10-26T10:31:31.669Z,22.35
2022-10-26T10:33:59.127Z,22.35
2022-10-26T10:36:29.231Z,22.34
2022-10-26T10:38:56.706Z,22.35
2022-10-26T10:41:26.840Z,22.36
2022-10-26T10:43:55.371Z,22.37
2022-10-26T10:46:25.649Z,22.41
2022-10-26T10:49:02.405Z,22.43
2022-10-26T10:51:30.619Z,22.44
2022-10-26T10:53:58.097Z,22.45
2022-10-26T10:56:34.065Z,22.46
2022-10-26T10:59:22.637Z,22.45
2022-10-26T11:01:53.887Z,22.47
2022-10-26T11:04:34.021Z,22.48
2022-10-26T11:07:01.826Z,22.50
2022-10-26T11:09:29.650Z,22.50
2022-10-26T11:11:58.991Z,22.52
2022-10-26T11:14:28.668Z,22.52
2022-10-26T11:16:58.910Z,22.55
2022-10-26T11:19:27.901Z,22.55
2022-10-26T11:21:55.711Z,22.55
2022-10-26T11:24:25.232Z,22.56
2022-10-26T11:26:55.546Z,22.57
2022-10-26T11:29:35.171Z,22.57
2022-10-26T11:32:12.058Z,22.57
2022-10-26T11:34:41.807Z,22.60
2022-10-26T11:37:11.754Z,22.60
2022-10-26T11:39:42.652Z,22.60
2022-10-26T11:42:12.569Z,22.61
2022-10-26T11:44:41.143Z,22.62
2022-10-26T11:47:13.218Z,22.63
2022-10-26T11:49:43.142Z,22.61
2022-10-26T11:52:14.549Z,22.63
2022-10-26T11:54:44.901Z,22.63
2022-10-26T11:57:12.354Z,22.64
2022-10-26T11:59:41.456Z,22.65
2022-10-26T12:02:15.151Z,22.65
2022-10-26T12:04:42.559Z,22.64
2022-10-26T12:07:11.810Z,22.66
2022-10-26T12:09:39.602Z,22.68
2022-10-26T12:12:09.590Z,22.68
2022-10-26T12:14:40.320Z,22.68
2022-10-26T12:17:10.046Z,22.69
2022-10-26T12:19:42.867Z,22.69
2022-10-26T12:22:10.795Z,22.71
2022-10-26T12:24:44.000Z,22.72
2022-10-26T12:27:31.315Z,22.72
2022-10-26T12:30:16.039Z,22.73
2022-10-26T12:32:50.951Z,22.74
2022-10-26T12:35:40.329Z,22.71
2022-10-26T12:38:47.438Z,22.73
2022-10-26T12:41:25.667Z,22.74
2022-10-26T12:43:59.158Z,22.77
2022-10-26T12:46:41.828Z,22.76
2022-10-26T12:49:54.315Z,22.75
2022-10-26T12:52:27.971Z,22.75
2022-10-26T12:55:49.658Z,22.73
2022-10-26T12:58:58.327Z,22.75
2022-10-26T13:02:00.419Z,22.75
2022-10-26T13:04:49.230Z,22.76
2022-10-26T13:07:21.203Z,22.76
2022-10-26T13:09:56.537Z,22.76
2022-10-26T13:12:23.917Z,22.77
2022-10-26T13:14:58.590Z,22.77
2022-10-26T13:17:27.138Z,22.77
2022-10-26T13:19:56.428Z,22.77
2022-10-26T13:22:24.420Z,22.77
2022-10-26T13:24:54.610Z,22.75
2022-10-26T13:27:42.551Z,22.77
2022-10-26T13:30:46.527Z,22.75
2022-10-26T13:33:24.585Z,22.75
2022-10-26T13:35:56.692Z,22.75
2022-10-26T13:38:25.142Z,22.75
2022-10-26T13:40:57.190Z,22.75
2022-10-26T13:43:24.575Z,22.74
2022-10-26T13:45:55.400Z,22.75
2022-10-26T13:48:27.789Z,22.74
2022-10-26T13:53:33.974Z,22.74
2022-10-26T13:56:07.381Z,22.75
2022-10-26T13:58:35.191Z,22.73
2022-10-26T14:01:13.448Z,22.74
2022-10-26T14:03:41.095Z,22.71
2022-10-26T14:06:11.675Z,22.74
2022-10-26T14:08:39.764Z,22.72
2022-10-26T14:11:08.883Z,22.74
2022-10-26T14:13:40.282Z,22.72
2022-10-26T14:16:12.855Z,22.72
2022-10-26T14:18:43.221Z,22.69
2022-10-26T14:21:16.015Z,22.67
2022-10-26T14:23:47.510Z,22.67
2022-10-26T14:26:21.896Z,22.67
2022-10-26T14:28:50.976Z,22.68
2022-10-26T14:31:23.994Z,22.66
2022-10-26T14:33:51.372Z,22.65
2022-10-26T14:36:18.773Z,22.63
2022-10-26T14:38:47.526Z,22.63
2022-10-26T14:41:15.270Z,22.61
2022-10-26T14:43:44.124Z,22.58
2022-10-26T14:46:13.913Z,22.55
2022-10-26T14:48:41.423Z,22.53
2022-10-26T14:51:10.955Z,22.50
2022-10-26T14:53:38.972Z,22.47
2022-10-26T14:56:07.090Z,22.44
2022-10-26T14:58:35.197Z,22.46
2022-10-26T15:01:17.467Z,22.42
2022-10-26T15:03:45.209Z,22.41
2022-10-26T15:06:31.863Z,22.38
2022-10-26T15:08:59.741Z,22.38
2022-10-26T15:11:27.291Z,22.37
2022-10-26T15:13:54.674Z,22.37
2022-10-26T15:16:23.881Z,22.35
2022-10-26T15:18:53.083Z,22.36
2022-10-26T15:21:23.860Z,22.33
2022-10-26T15:23:51.413Z,22.32
2022-10-26T15:26:18.831Z,22.31
2022-10-26T15:28:49.431Z,22.30
2022-10-26T15:31:30.707Z,22.28
2022-10-26T15:34:12.399Z,22.25
2022-10-26T15:36:39.790Z,22.24
2022-10-26T15:39:07.212Z,22.23
2022-10-26T15:41:38.794Z,22.23
2022-10-26T15:44:13.837Z,22.22
2022-10-26T15:46:42.562Z,22.21
2022-10-26T15:49:16.026Z,22.21
2022-10-26T15:51:44.580Z,22.20
2022-10-26T15:54:11.980Z,22.17
2022-10-26T15:56:39.705Z,22.17
2022-10-26T15:59:09.868Z,22.17
2022-10-26T16:01:37.389Z,22.15
2022-10-26T16:04:06.170Z,22.14
2022-10-26T16:06:34.994Z,22.12
2022-10-26T16:09:03.179Z,22.10
2022-10-26T16:11:30.834Z,22.12
2022-10-26T16:14:01.190Z,22.10
2022-10-26T16:16:31.164Z,22.09
2022-10-26T16:19:18.386Z,22.09
2022-10-26T16:21:47.347Z,22.08
2022-10-26T16:24:14.753Z,22.08
2022-10-26T16:26:42.173Z,22.09
2022-10-26T16:29:10.586Z,22.06
2022-10-26T16:31:38.292Z,22.05
2022-10-26T16:34:05.681Z,22.07
2022-10-26T16:36:34.480Z,22.08
2022-10-26T16:41:35.565Z,22.06
2022-10-26T16:44:02.957Z,22.05
2022-10-26T16:46:30.387Z,22.04
2022-10-26T16:48:57.871Z,22.04
2022-10-26T16:51:26.363Z,22.02
2022-10-26T16:53:55.535Z,22.02
2022-10-26T16:56:25.441Z,22.00
2022-10-26T16:58:52.863Z,22.00
2022-10-26T17:01:20.687Z,21.99
2022-10-26T17:03:48.550Z,21.99
2022-10-26T17:06:15.997Z,21.99
2022-10-26T17:08:43.514Z,21.99
2022-10-26T17:11:13.150Z,21.98
2022-10-26T17:13:41.919Z,21.99
2022-10-26T17:16:11.628Z,21.96
2022-10-26T17:18:39.930Z,21.96
2022-10-26T17:21:07.370Z,21.96
2022-10-26T17:23:34.774Z,21.97
2022-10-26T17:26:02.888Z,21.98
2022-10-26T17:28:30.286Z,21.96
2022-10-26T17:31:06.794Z,21.95
2022-10-26T17:33:34.583Z,21.94
2022-10-26T17:36:02.090Z,21.95
2022-10-26T17:38:31.632Z,21.95
2022-10-26T17:41:01.370Z,21.94
2022-10-26T17:43:30.815Z,21.93
2022-10-26T17:45:59.598Z,21.91
2022-10-26T17:48:28.544Z,21.91
2022-10-26T17:50:55.948Z,21.94
2022-10-26T17:53:23.348Z,21.92
2022-10-26T17:55:50.739Z,21.90
2022-10-26T17:58:18.146Z,21.92
2022-10-26T18:00:49.193Z,21.90
2022-10-26T18:03:17.593Z,21.90
2022-10-26T18:05:50.559Z,21.92
2022-10-26T18:08:17.962Z,21.91
2022-10-26T18:10:47.719Z,21.92
2022-10-26T18:13:15.119Z,21.94
2022-10-26T18:15:42.536Z,21.90
2022-10-26T18:18:09.912Z,21.93
2022-10-26T18:20:37.330Z,21.89
2022-10-26T18:23:06.017Z,21.89
2022-10-26T18:25:33.694Z,21.89
2022-10-26T18:28:01.147Z,21.89
2022-10-26T18:30:28.618Z,21.91
2022-10-26T18:32:56.018Z,21.87
2022-10-26T18:35:24.064Z,21.97
2022-10-26T18:37:51.832Z,21.96
2022-10-26T18:40:20.800Z,21.90
2022-10-26T18:42:48.194Z,21.89
2022-10-26T18:45:15.610Z,21.90
2022-10-26T18:47:43.084Z,21.87
2022-10-26T18:50:10.826Z,21.89
2022-10-26T18:52:38.291Z,21.86
2022-10-26T18:55:06.642Z,21.87
2022-10-26T18:57:35.361Z,21.86
2022-10-26T19:00:02.786Z,21.86
2022-10-26T19:02:30.188Z,21.86
2022-10-26T19:04:58.812Z,21.89
2022-10-26T19:07:26.271Z,21.84
2022-10-26T19:09:53.681Z,21.85
2022-10-26T19:12:21.092Z,21.86
2022-10-26T19:14:51.418Z,21.90
2022-10-26T19:17:18.842Z,21.89
2022-10-26T19:19:46.253Z,21.87
2022-10-26T19:22:13.657Z,21.86
2022-10-26T19:24:44.907Z,21.87
2022-10-26T19:27:12.379Z,21.85
2022-10-26T19:29:40.924Z,21.84
2022-10-26T19:32:09.623Z,21.84
2022-10-26T19:34:37.054Z,21.83
2022-10-26T19:37:05.199Z,21.82
2022-10-26T19:39:32.613Z,21.83
2022-10-26T19:42:00.024Z,21.84
2022-10-26T19:44:27.415Z,21.84
2022-10-26T19:46:54.826Z,21.86
2022-10-26T19:49:23.694Z,21.84
2022-10-26T19:51:51.238Z,21.82
2022-10-26T19:54:18.652Z,21.84
2022-10-26T19:56:46.048Z,21.85
2022-10-26T19:59:13.594Z,21.83
2022-10-26T20:01:41.056Z,21.82
2022-10-26T20:04:08.504Z,21.85
2022-10-26T20:06:37.183Z,21.84
2022-10-26T20:09:04.769Z,21.82
2022-10-26T20:11:35.020Z,21.82
2022-10-26T20:14:02.416Z,21.82
2022-10-26T20:16:29.810Z,21.84
2022-10-26T20:18:57.208Z,21.80
2022-10-26T20:21:24.609Z,21.80
2022-10-26T20:23:53.320Z,21.82
2022-10-26T20:26:21.448Z,21.80
2022-10-26T20:28:51.710Z,21.78
2022-10-26T20:31:19.320Z,21.78
2022-10-26T20:33:49.530Z,21.77
2022-10-26T20:36:16.912Z,21.79
2022-10-26T20:38:44.725Z,21.80
2022-10-26T20:41:13.919Z,21.78
2022-10-26T20:43:41.773Z,21.78
2022-10-26T20:46:11.144Z,21.79
2022-10-26T20:48:39.269Z,21.78
2022-10-26T20:51:08.184Z,21.77
2022-10-26T20:53:35.999Z,21.79
2022-10-26T20:56:04.636Z,21.78
2022-10-26T20:58:41.227Z,21.77
2022-10-26T21:01:10.920Z,21.78
2022-10-26T21:03:38.418Z,21.78
2022-10-26T21:06:06.103Z,21.78
2022-10-26T21:08:33.499Z,21.79
2022-10-26T21:11:01.255Z,21.76
2022-10-26T21:13:31.467Z,21.77
2022-10-26T21:16:01.244Z,21.81
2022-10-26T21:18:28.657Z,21.88
2022-10-26T21:20:57.812Z,21.86
2022-10-26T21:23:25.220Z,21.84
2022-10-26T21:25:55.770Z,21.83
2022-10-26T21:28:23.182Z,21.82
2022-10-26T21:30:50.639Z,21.81
2022-10-26T21:33:22.565Z,21.82
2022-10-26T21:35:55.262Z,21.87
2022-10-26T21:38:22.672Z,21.89
2022-10-26T21:40:50.084Z,21.89
2022-10-26T21:43:18.889Z,21.97
2022-10-26T21:45:48.645Z,21.99
2022-10-26T21:48:16.052Z,21.96
2022-10-26T21:50:44.752Z,21.95
2022-10-26T21:53:12.160Z,21.89
2022-10-26T21:55:39.562Z,21.85
2022-10-26T21:58:06.994Z,21.83
2022-10-26T22:00:34.384Z,21.82
2022-10-26T22:03:01.864Z,21.86
2022-10-26T22:05:30.780Z,21.96
2022-10-26T22:07:59.460Z,21.96
2022-10-26T22:10:27.865Z,21.94
2022-10-26T22:12:55.293Z,21.94
2022-10-26T22:15:22.697Z,21.89
2022-10-26T22:17:50.381Z,21.84
2022-10-26T22:20:17.994Z,21.82
2022-10-26T22:22:45.393Z,21.79
2022-10-26T22:25:14.082Z,21.76
2022-10-26T22:27:41.508Z,21.75
2022-10-26T22:30:10.014Z,21.71
2022-10-26T22:32:37.413Z,21.72
2022-10-26T22:35:17.464Z,21.70
2022-10-26T22:37:52.277Z,21.69
2022-10-26T22:40:20.964Z,21.69
2022-10-26T22:42:48.570Z,21.70
2022-10-26T22:45:16.276Z,21.70
2022-10-26T22:47:43.691Z,21.70
2022-10-26T22:50:11.082Z,21.71
2022-10-26T22:52:38.473Z,21.71
2022-10-26T22:55:06.490Z,21.69
2022-10-26T22:57:35.181Z,21.69
2022-10-26T23:00:02.571Z,21.70
2022-10-26T23:02:30.037Z,21.70
2022-10-26T23:04:57.484Z,21.69
2022-10-26T23:07:26.112Z,21.70
2022-10-26T23:09:53.619Z,21.71
2022-10-26T23:12:21.016Z,21.71
2022-10-26T23:14:49.686Z,21.70
2022-10-26T23:17:17.084Z,21.69
2022-10-26T23:19:44.474Z,21.74
2022-10-26T23:22:11.867Z,21.71
2022-10-26T23:24:39.262Z,21.72
2022-10-26T23:27:06.649Z,21.68
2022-10-26T23:29:34.105Z,21.70
2022-10-26T23:32:02.834Z,21.70
2022-10-26T23:34:30.242Z,21.69
2022-10-26T23:36:57.655Z,21.69
2022-10-26T23:39:25.054Z,21.70
2022-10-26T23:41:52.466Z,21.69
2022-10-26T23:44:19.858Z,21.68
2022-10-26T23:46:47.251Z,21.70
2022-10-26T23:49:15.935Z,21.69
2022-10-26T23:51:43.336Z,21.67
2022-10-26T23:54:10.746Z,21.67
2022-10-26T23:56:38.148Z,21.63
2022-10-26T23:59:08.078Z,21.65
